createdAt,value
2022-10-19T00:01:57.966Z,100.00
2022-10-19T00:04:24.451Z,100.00
2022-10-19T00:06:50.884Z,100.00
2022-10-19T00:09:18.300Z,100.00
2022-10-19T00:11:46.146Z,100.00
2022-10-19T00:14:17.501Z,100.00
2022-10-19T00:16:45.173Z,100.00
2022-10-19T00:19:12.913Z,100.00
2022-10-19T00:21:40.003Z,100.00
2022-10-19T00:24:07.018Z,100.00
2022-10-19T00:26:33.886Z,100.00
2022-10-19T00:29:00.652Z,100.00
2022-10-19T00:31:27.131Z,100.00
2022-10-19T00:33:55.503Z,100.00
2022-10-19T00:36:23.523Z,100.00
2022-10-19T00:38:50.327Z,100.00
2022-10-19T00:41:17.470Z,100.00
2022-10-19T00:43:53.099Z,100.00
2022-10-19T00:46:19.495Z,100.00
2022-10-19T00:48:46.030Z,100.00
2022-10-19T00:51:12.738Z,100.00
2022-10-19T00:53:39.492Z,100.00
2022-10-19T00:56:07.880Z,100.00
2022-10-19T00:58:34.496Z,100.00
2022-10-19T01:01:02.778Z,100.00
2022-10-19T01:03:29.388Z,100.00
2022-10-19T01:05:55.874Z,100.00
2022-10-19T01:08:22.488Z,100.00
2022-10-19T01:10:51.989Z,100.00
2022-10-19T01:13:28.664Z,100.00
2022-10-19T01:18:53.372Z,100.00
2022-10-19T01:21:30.737Z,100.00
2022-10-19T01:23:59.823Z,100.00
2022-10-19T01:26:55.415Z,100.00
2022-10-19T01:29:33.862Z,100.00
2022-10-19T01:32:03.652Z,100.00
2022-10-19T01:34:36.265Z,100.00
2022-10-19T01:37:05.977Z,100.00
2022-10-19T01:39:54.929Z,100.00
2022-10-19T01:42:24.420Z,100.00
2022-10-19T01:44:54.459Z,100.00
2022-10-19T01:47:41.183Z,100.00
2022-10-19T01:50:19.202Z,100.00
2022-10-19T01:52:47.024Z,100.00
2022-10-19T01:55:15.423Z,100.00
2022-10-19T01:57:46.198Z,100.00
2022-10-19T02:00:13.680Z,100.00
2022-10-19T02:02:45.306Z,100.00
2022-10-19T02:05:12.802Z,100.00
2022-10-19T02:07:40.548Z,100.00
2022-10-19T02:10:07.345Z,100.00
2022-10-19T02:12:34.527Z,100.00
2022-10-19T02:15:03.482Z,100.00
2022-10-19T02:17:35.977Z,100.00
2022-10-19T02:20:03.008Z,100.00
2022-10-19T02:22:29.447Z,100.00
2022-10-19T02:24:55.946Z,100.00
2022-10-19T02:27:22.679Z,100.00
2022-10-19T02:29:49.510Z,100.00
2022-10-19T02:32:15.983Z,100.00
2022-10-19T02:34:42.500Z,100.00
2022-10-19T02:37:09.137Z,100.00
2022-10-19T02:39:35.684Z,100.00
2022-10-19T02:42:07.870Z,100.00
2022-10-19T02:44:39.970Z,100.00
2022-10-19T02:47:20.945Z,100.00
2022-10-19T02:49:47.755Z,100.00
2022-10-19T02:52:14.294Z,100.00
2022-10-19T02:54:42.418Z,100.00
2022-10-19T02:57:19.839Z,100.00
2022-10-19T02:59:46.750Z,100.00
2022-10-19T03:02:13.978Z,100.00
2022-10-19T03:04:41.768Z,100.00
2022-10-19T03:07:12.012Z,100.00
2022-10-19T03:09:38.407Z,100.00
2022-10-19T03:12:04.878Z,100.00
2022-10-19T03:14:31.273Z,100.00
2022-10-19T03:16:57.723Z,100.00
2022-10-19T03:19:24.373Z,100.00
2022-10-19T03:21:50.997Z,100.00
2022-10-19T03:24:17.685Z,100.00
2022-10-19T03:26:44.319Z,100.00
2022-10-19T03:29:10.770Z,100.00
2022-10-19T03:31:37.201Z,100.00
2022-10-19T03:34:03.847Z,100.00
2022-10-19T03:36:31.728Z,100.00
2022-10-19T03:38:59.485Z,100.00
2022-10-19T03:41:27.588Z,100.00
2022-10-19T03:43:54.199Z,100.00
2022-10-19T03:46:20.927Z,100.00
2022-10-19T03:48:47.592Z,100.00
2022-10-19T03:51:15.144Z,100.00
2022-10-19T03:53:41.972Z,100.00
2022-10-19T03:56:09.544Z,100.00
2022-10-19T03:58:36.817Z,100.00
2022-10-19T04:01:06.670Z,100.00
2022-10-19T04:03:33.140Z,100.00
2022-10-19T04:06:06.934Z,100.00
2022-10-19T04:08:33.525Z,100.00
2022-10-19T04:11:01.233Z,100.00
2022-10-19T04:13:27.776Z,100.00
2022-10-19T04:15:54.343Z,100.00
2022-10-19T04:18:20.751Z,100.00
2022-10-19T04:20:47.213Z,100.00
2022-10-19T04:23:13.679Z,100.00
2022-10-19T04:25:40.350Z,100.00
2022-10-19T04:28:06.769Z,100.00
2022-10-19T04:30:33.494Z,100.00
2022-10-19T04:32:59.940Z,100.00
2022-10-19T04:35:26.396Z,100.00
2022-10-19T04:37:52.826Z,100.00
2022-10-19T04:40:19.477Z,100.00
2022-10-19T04:42:45.932Z,100.00
2022-10-19T04:45:12.345Z,100.00
2022-10-19T04:47:38.757Z,100.00
2022-10-19T04:50:05.448Z,100.00
2022-10-19T04:52:31.862Z,100.00
2022-10-19T04:54:58.300Z,100.00
2022-10-19T04:57:24.691Z,100.00
2022-10-19T04:59:51.139Z,100.00
2022-10-19T05:02:17.534Z,100.00
2022-10-19T05:04:45.198Z,100.00
2022-10-19T05:07:11.726Z,100.00
2022-10-19T05:09:40.435Z,100.00
2022-10-19T05:12:06.831Z,100.00
2022-10-19T05:14:35.843Z,100.00
2022-10-19T05:17:04.327Z,100.00
2022-10-19T05:19:30.779Z,100.00
2022-10-19T05:21:57.190Z,100.00
2022-10-19T05:24:23.725Z,100.00
2022-10-19T05:26:50.173Z,100.00
2022-10-19T05:29:16.831Z,100.00
2022-10-19T05:31:43.302Z,100.00
2022-10-19T05:34:09.739Z,100.00
2022-10-19T05:36:37.652Z,100.00
2022-10-19T05:39:06.235Z,100.00
2022-10-19T05:41:32.715Z,100.00
2022-10-19T05:44:00.280Z,100.00
2022-10-19T05:46:28.188Z,100.00
2022-10-19T05:48:55.512Z,100.00
2022-10-19T05:51:22.758Z,100.00
2022-10-19T05:53:49.255Z,100.00
2022-10-19T05:56:16.971Z,100.00
2022-10-19T05:58:43.394Z,100.00
2022-10-19T06:01:09.866Z,100.00
2022-10-19T06:03:36.660Z,100.00
2022-10-19T06:06:05.851Z,100.00
2022-10-19T06:08:32.416Z,100.00
2022-10-19T06:11:06.903Z,100.00
2022-10-19T06:13:33.366Z,100.00
2022-10-19T06:15:59.787Z,100.00
2022-10-19T06:18:26.300Z,100.00
2022-10-19T06:20:52.838Z,100.00
2022-10-19T06:23:19.368Z,100.00
2022-10-19T06:25:45.812Z,100.00
2022-10-19T06:28:12.280Z,100.00
2022-10-19T06:30:40.463Z,100.00
2022-10-19T06:33:07.177Z,100.00
2022-10-19T06:35:33.743Z,100.00
2022-10-19T06:38:00.182Z,100.00
2022-10-19T06:40:26.651Z,100.00
2022-10-19T06:42:54.778Z,100.00
2022-10-19T06:45:21.217Z,100.00
2022-10-19T06:50:20.443Z,100.00
2022-10-19T06:52:46.873Z,100.00
2022-10-19T06:55:13.405Z,100.00
2022-10-19T06:57:39.798Z,100.00
2022-10-19T07:00:06.769Z,100.00
2022-10-19T07:02:33.566Z,100.00
2022-10-19T07:05:04.487Z,100.00
2022-10-19T07:07:33.762Z,100.00
2022-10-19T07:10:00.488Z,100.00
2022-10-19T07:12:26.894Z,100.00
2022-10-19T07:14:54.456Z,100.00
2022-10-19T07:17:21.191Z,100.00
2022-10-19T07:19:47.808Z,100.00
2022-10-19T07:22:19.728Z,100.00
2022-10-19T07:24:47.793Z,100.00
2022-10-19T07:27:14.364Z,100.00
2022-10-19T07:29:40.817Z,100.00
2022-10-19T07:32:07.233Z,100.00
2022-10-19T07:34:33.640Z,100.00
2022-10-19T07:37:00.082Z,100.00
2022-10-19T07:39:27.527Z,100.00
2022-10-19T07:41:53.908Z,100.00
2022-10-19T07:44:20.388Z,100.00
2022-10-19T07:46:46.803Z,100.00
2022-10-19T07:49:16.271Z,100.00
2022-10-19T07:51:42.728Z,100.00
2022-10-19T07:54:09.287Z,100.00
2022-10-19T07:56:35.698Z,100.00
2022-10-19T07:59:02.863Z,100.00
2022-10-19T08:01:30.489Z,100.00
2022-10-19T08:04:48.657Z,100.00
2022-10-19T08:06:44.370Z,100.00
2022-10-19T08:09:15.576Z,100.00
2022-10-19T08:11:49.618Z,100.00
2022-10-19T08:14:16.572Z,100.00
2022-10-19T08:16:44.457Z,100.00
2022-10-19T08:19:16.061Z,100.00
2022-10-19T08:21:43.672Z,100.00
2022-10-19T08:24:11.037Z,100.00
2022-10-19T08:26:38.878Z,100.00
2022-10-19T08:29:07.008Z,100.00
2022-10-19T08:31:33.476Z,100.00
2022-10-19T08:34:00.305Z,100.00
2022-10-19T08:36:27.613Z,100.00
2022-10-19T08:38:54.039Z,100.00
2022-10-19T08:41:23.555Z,100.00
2022-10-19T08:43:53.268Z,100.00
2022-10-19T08:46:30.148Z,100.00
2022-10-19T08:48:56.599Z,100.00
2022-10-19T08:51:23.029Z,100.00
2022-10-19T08:53:53.580Z,100.00
2022-10-19T08:56:45.680Z,100.00
2022-10-19T08:59:12.508Z,100.00
2022-10-19T09:01:48.075Z,100.00
2022-10-19T09:04:26.046Z,100.00
2022-10-19T09:06:58.617Z,100.00
2022-10-19T09:09:25.410Z,100.00
2022-10-19T09:11:55.511Z,100.00
2022-10-19T09:14:31.771Z,100.00
2022-10-19T09:17:02.026Z,100.00
2022-10-19T09:19:30.981Z,100.00
2022-10-19T09:21:57.457Z,100.00
2022-10-19T09:24:39.379Z,100.00
2022-10-19T09:27:06.069Z,100.00
2022-10-19T09:29:41.410Z,100.00
2022-10-19T09:32:18.226Z,100.00
2022-10-19T09:34:46.356Z,100.00
2022-10-19T09:37:21.220Z,100.00
2022-10-19T09:39:54.085Z,100.00
2022-10-19T09:42:33.815Z,100.00
2022-10-19T09:45:01.836Z,100.00
2022-10-19T09:47:36.041Z,100.00
2022-10-19T09:50:14.444Z,100.00
2022-10-19T09:52:41.820Z,100.00
2022-10-19T09:55:14.013Z,100.00
2022-10-19T09:57:44.227Z,99.68
2022-10-19T10:00:37.298Z,99.46
2022-10-19T10:03:04.294Z,99.87
2022-10-19T10:05:35.641Z,100.00
2022-10-19T10:08:02.620Z,100.00
2022-10-19T10:10:39.697Z,99.31
2022-10-19T10:13:06.305Z,97.30
2022-10-19T10:15:42.715Z,99.08
2022-10-19T10:18:13.402Z,97.68
2022-10-19T10:20:55.517Z,100.00
2022-10-19T10:23:26.544Z,97.90
2022-10-19T10:25:56.278Z,95.85
2022-10-19T10:28:24.153Z,91.40
2022-10-19T10:30:54.671Z,92.78
2022-10-19T10:33:40.416Z,92.69
2022-10-19T10:36:11.435Z,91.07
2022-10-19T10:38:46.516Z,88.21
2022-10-19T10:41:15.972Z,86.32
2022-10-19T10:44:02.311Z,87.34
2022-10-19T10:46:35.681Z,86.67
2022-10-19T10:49:03.102Z,87.80
2022-10-19T10:51:33.127Z,89.12
2022-10-19T10:54:06.781Z,88.71
2022-10-19T10:56:34.414Z,87.52
2022-10-19T10:59:04.945Z,85.11
2022-10-19T11:01:35.387Z,86.42
2022-10-19T11:04:05.460Z,87.51
2022-10-19T11:06:34.563Z,85.57
2022-10-19T11:09:08.716Z,84.87
2022-10-19T11:11:42.079Z,82.90
2022-10-19T11:14:22.261Z,82.58
2022-10-19T11:16:50.743Z,84.81
2022-10-19T11:19:35.086Z,81.56
2022-10-19T11:22:01.624Z,81.29
2022-10-19T11:24:52.964Z,81.46
2022-10-19T11:27:30.099Z,82.18
2022-10-19T11:30:11.686Z,82.88
2022-10-19T11:32:38.093Z,84.23
2022-10-19T11:35:27.820Z,82.44
2022-10-19T11:38:22.021Z,85.19
2022-10-19T11:41:17.896Z,86.74
2022-10-19T11:44:00.206Z,86.76
2022-10-19T11:46:34.938Z,81.29
2022-10-19T11:49:01.405Z,79.44
2022-10-19T11:51:33.520Z,78.69
2022-10-19T11:54:06.977Z,78.59
2022-10-19T11:57:01.846Z,78.05
2022-10-19T11:59:50.263Z,78.70
2022-10-19T12:02:16.676Z,79.11
2022-10-19T12:05:01.899Z,77.86
2022-10-19T12:07:43.751Z,79.00
2022-10-19T12:10:21.695Z,78.14
2022-10-19T12:12:50.342Z,77.76
2022-10-19T12:15:19.652Z,79.25
2022-10-19T12:17:48.232Z,79.45
2022-10-19T12:20:28.337Z,77.85
2022-10-19T12:22:54.847Z,78.80
2022-10-19T12:25:22.199Z,78.50
2022-10-19T12:27:50.671Z,79.03
2022-10-19T12:30:19.057Z,80.04
2022-10-19T12:32:53.405Z,78.33
2022-10-19T12:35:24.576Z,78.98
2022-10-19T12:38:09.507Z,78.53
2022-10-19T12:41:05.136Z,78.34
2022-10-19T12:43:46.653Z,78.94
2022-10-19T12:46:19.150Z,79.16
2022-10-19T12:48:45.616Z,79.62
2022-10-19T12:51:13.589Z,80.04
2022-10-19T12:53:45.465Z,79.86
2022-10-19T12:56:11.859Z,80.96
2022-10-19T12:58:47.771Z,82.39
2022-10-19T13:01:20.481Z,79.94
2022-10-19T13:03:48.097Z,80.66
2022-10-19T13:06:17.946Z,80.00
2022-10-19T13:09:07.987Z,82.61
2022-10-19T13:14:29.617Z,80.59
2022-10-19T13:16:57.566Z,80.43
2022-10-19T13:19:24.148Z,80.80
2022-10-19T13:22:00.621Z,80.19
2022-10-19T13:24:27.095Z,81.53
2022-10-19T13:26:59.861Z,80.59
2022-10-19T13:29:27.268Z,79.88
2022-10-19T13:31:53.788Z,79.74
2022-10-19T13:34:20.321Z,79.99
2022-10-19T13:37:03.404Z,79.81
2022-10-19T13:39:30.154Z,80.62
2022-10-19T13:41:57.355Z,80.24
2022-10-19T13:44:25.434Z,80.56
2022-10-19T13:46:51.804Z,77.83
2022-10-19T13:49:25.779Z,78.31
2022-10-19T13:51:54.324Z,78.90
2022-10-19T13:54:39.104Z,80.12
2022-10-19T13:57:05.549Z,80.57
2022-10-19T13:59:44.664Z,81.19
2022-10-19T14:02:30.144Z,80.78
2022-10-19T14:05:05.968Z,79.89
2022-10-19T14:07:52.654Z,79.62
2022-10-19T14:10:25.168Z,80.31
2022-10-19T14:13:00.213Z,82.31
2022-10-19T14:15:28.494Z,83.01
2022-10-19T14:17:55.640Z,82.95
2022-10-19T14:20:27.045Z,82.73
2022-10-19T14:22:53.594Z,82.71
2022-10-19T14:25:21.997Z,82.75
2022-10-19T14:27:58.382Z,81.72
2022-10-19T14:30:27.714Z,81.85
2022-10-19T14:32:58.044Z,81.20
2022-10-19T14:35:29.401Z,82.69
2022-10-19T14:37:56.494Z,81.58
2022-10-19T14:40:33.518Z,82.47
2022-10-19T14:43:00.627Z,82.87
2022-10-19T14:45:31.663Z,83.69
2022-10-19T14:47:58.072Z,84.51
2022-10-19T14:50:28.227Z,83.82
2022-10-19T14:52:58.665Z,84.19
2022-10-19T14:55:28.429Z,85.16
2022-10-19T14:57:54.954Z,84.76
2022-10-19T15:00:22.643Z,84.88
2022-10-19T15:03:00.807Z,85.22
2022-10-19T15:05:29.264Z,85.87
2022-10-19T15:07:55.945Z,85.93
2022-10-19T15:10:22.366Z,85.92
2022-10-19T15:12:50.433Z,86.05
2022-10-19T15:15:24.082Z,86.55
2022-10-19T15:17:55.541Z,86.74
2022-10-19T15:20:25.110Z,87.47
2022-10-19T15:22:51.567Z,86.42
2022-10-19T15:25:35.420Z,87.09
2022-10-19T15:28:41.769Z,86.32
2022-10-19T15:31:16.492Z,85.60
2022-10-19T15:33:53.237Z,86.50
2022-10-19T15:36:20.607Z,87.68
2022-10-19T15:38:47.953Z,88.44
2022-10-19T15:41:34.520Z,88.40
2022-10-19T15:44:04.187Z,89.18
2022-10-19T15:46:50.869Z,89.21
2022-10-19T15:49:17.280Z,88.61
2022-10-19T15:51:45.122Z,89.24
2022-10-19T15:54:12.426Z,88.24
2022-10-19T15:56:39.560Z,88.77
2022-10-19T15:59:10.139Z,89.50
2022-10-19T16:01:36.799Z,90.19
2022-10-19T16:04:03.329Z,90.55
2022-10-19T16:06:31.365Z,90.59
2022-10-19T16:08:58.757Z,92.09
2022-10-19T16:11:25.930Z,92.79
2022-10-19T16:13:52.306Z,93.33
2022-10-19T16:16:22.026Z,94.53
2022-10-19T16:18:48.490Z,94.88
2022-10-19T16:21:15.636Z,95.23
2022-10-19T16:23:42.340Z,95.45
2022-10-19T16:26:08.957Z,96.40
2022-10-19T16:28:35.926Z,96.42
2022-10-19T16:31:02.451Z,96.56
2022-10-19T16:33:28.855Z,96.75
2022-10-19T16:35:55.257Z,96.85
2022-10-19T16:38:21.683Z,97.14
2022-10-19T16:40:48.142Z,97.24
2022-10-19T16:43:14.540Z,97.15
2022-10-19T16:45:44.225Z,97.72
2022-10-19T16:48:13.543Z,97.58
2022-10-19T16:53:14.252Z,97.86
2022-10-19T16:55:40.782Z,98.56
2022-10-19T16:58:07.448Z,98.60
2022-10-19T17:00:35.372Z,98.45
2022-10-19T17:03:01.826Z,98.34
2022-10-19T17:05:28.513Z,98.63
2022-10-19T17:07:55.009Z,98.61
2022-10-19T17:10:21.631Z,98.49
2022-10-19T17:12:48.077Z,98.56
2022-10-19T17:18:00.988Z,98.65
2022-10-19T17:20:27.444Z,99.32
2022-10-19T17:22:53.934Z,98.87
2022-10-19T17:25:20.437Z,99.31
2022-10-19T17:27:50.135Z,99.48
2022-10-19T17:30:16.709Z,99.74
2022-10-19T17:32:43.178Z,100.00
2022-10-19T17:35:09.988Z,100.00
2022-10-19T17:37:36.731Z,100.00
2022-10-19T17:40:03.579Z,100.00
2022-10-19T17:42:31.091Z,100.00
2022-10-19T17:44:57.813Z,100.00
2022-10-19T17:47:24.200Z,100.00
2022-10-19T17:49:50.637Z,100.00
2022-10-19T17:52:17.021Z,100.00
2022-10-19T17:54:48.855Z,100.00
2022-10-19T17:57:27.193Z,100.00
2022-10-19T17:59:54.497Z,100.00
2022-10-19T18:02:21.009Z,100.00
2022-10-19T18:04:47.476Z,100.00
2022-10-19T18:07:14.092Z,100.00
2022-10-19T18:09:40.645Z,100.00
2022-10-19T18:12:08.664Z,100.00
2022-10-19T18:14:35.085Z,100.00
2022-10-19T18:17:01.517Z,100.00
2022-10-19T18:19:28.249Z,100.00
2022-10-19T18:21:54.696Z,100.00
2022-10-19T18:24:21.583Z,100.00
2022-10-19T18:26:49.048Z,100.00
2022-10-19T18:29:17.628Z,100.00
2022-10-19T18:31:44.415Z,100.00
2022-10-19T18:34:14.991Z,100.00
2022-10-19T18:36:41.547Z,100.00
2022-10-19T18:39:08.157Z,100.00
2022-10-19T18:41:34.647Z,100.00
2022-10-19T18:44:03.343Z,100.00
2022-10-19T18:46:30.228Z,100.00
2022-10-19T18:48:56.727Z,100.00
2022-10-19T18:51:23.632Z,100.00
2022-10-19T18:53:50.379Z,100.00
2022-10-19T18:56:19.211Z,100.00
2022-10-19T18:58:46.162Z,100.00
2022-10-19T19:01:14.269Z,100.00
2022-10-19T19:03:42.127Z,100.00
2022-10-19T19:06:13.224Z,100.00
2022-10-19T19:08:39.844Z,100.00
2022-10-19T19:11:11.374Z,100.00
2022-10-19T19:13:38.646Z,100.00
2022-10-19T19:16:05.638Z,100.00
2022-10-19T19:18:35.125Z,100.00
2022-10-19T19:21:01.839Z,100.00
2022-10-19T19:23:28.473Z,100.00
2022-10-19T19:25:55.440Z,100.00
2022-10-19T19:28:21.970Z,100.00
2022-10-19T19:30:48.460Z,100.00
2022-10-19T19:33:15.255Z,100.00
2022-10-19T19:35:42.576Z,100.00
2022-10-19T19:38:09.644Z,100.00
2022-10-19T19:40:38.417Z,100.00
2022-10-19T19:43:05.149Z,100.00
2022-10-19T19:45:31.581Z,100.00
2022-10-19T19:47:58.087Z,100.00
2022-10-19T19:50:24.494Z,100.00
2022-10-19T19:52:51.040Z,100.00
2022-10-19T19:55:17.645Z,100.00
2022-10-19T19:57:45.341Z,100.00
2022-10-19T20:00:12.072Z,100.00
2022-10-19T20:02:39.360Z,100.00
2022-10-19T20:05:05.866Z,100.00
2022-10-19T20:07:32.444Z,100.00
2022-10-19T20:09:58.979Z,100.00
2022-10-19T20:12:25.424Z,100.00
2022-10-19T20:14:51.810Z,100.00
2022-10-19T20:17:23.662Z,100.00
2022-10-19T20:19:50.216Z,100.00
2022-10-19T20:22:16.741Z,100.00
2022-10-19T20:24:43.139Z,100.00
2022-10-19T20:27:09.584Z,100.00
2022-10-19T20:29:35.981Z,100.00
2022-10-19T20:32:02.870Z,100.00
2022-10-19T20:34:29.505Z,100.00
2022-10-19T20:36:56.148Z,100.00
2022-10-19T20:39:22.563Z,100.00
2022-10-19T20:41:49.090Z,100.00
2022-10-19T20:44:15.588Z,100.00
2022-10-19T20:46:42.085Z,100.00
2022-10-19T20:49:11.189Z,100.00
2022-10-19T20:51:38.447Z,100.00
2022-10-19T20:54:09.966Z,100.00
2022-10-19T20:56:38.005Z,100.00
2022-10-19T20:59:05.969Z,100.00
2022-10-19T21:01:33.919Z,100.00
2022-10-19T21:04:01.914Z,100.00
2022-10-19T21:06:29.063Z,100.00
2022-10-19T21:08:55.552Z,100.00
2022-10-19T21:11:23.625Z,100.00
2022-10-19T21:13:53.572Z,100.00
2022-10-19T21:16:21.333Z,100.00
2022-10-19T21:18:48.785Z,100.00
2022-10-19T21:21:22.554Z,100.00
2022-10-19T21:23:50.693Z,100.00
2022-10-19T21:26:17.725Z,100.00
2022-10-19T21:28:47.919Z,100.00
2022-10-19T21:31:14.690Z,100.00
2022-10-19T21:33:41.160Z,100.00
2022-10-19T21:36:08.118Z,100.00
2022-10-19T21:38:34.598Z,100.00
2022-10-19T21:41:02.633Z,100.00
2022-10-19T21:43:29.147Z,100.00
2022-10-19T21:45:55.715Z,100.00
2022-10-19T21:48:22.510Z,100.00
2022-10-19T21:50:49.416Z,100.00
2022-10-19T21:53:20.237Z,100.00
2022-10-19T21:55:46.899Z,100.00
2022-10-19T21:58:13.434Z,100.00
2022-10-19T22:00:40.075Z,100.00
2022-10-19T22:03:06.582Z,100.00
2022-10-19T22:05:33.031Z,100.00
2022-10-19T22:07:59.453Z,100.00
2022-10-19T22:10:25.879Z,100.00
2022-10-19T22:12:52.661Z,100.00
2022-10-19T22:15:19.050Z,100.00
2022-10-19T22:17:45.484Z,100.00
2022-10-19T22:20:11.925Z,100.00
2022-10-19T22:22:38.470Z,100.00
2022-10-19T22:25:05.350Z,100.00
2022-10-19T22:27:31.798Z,100.00
2022-10-19T22:29:58.214Z,100.00
2022-10-19T22:32:24.701Z,100.00
2022-10-19T22:34:51.151Z,100.00
2022-10-19T22:37:17.572Z,100.00
2022-10-19T22:39:43.905Z,100.00
2022-10-19T22:42:10.331Z,100.00
2022-10-19T22:44:36.772Z,100.00
2022-10-19T22:47:03.244Z,100.00
2022-10-19T22:49:29.680Z,100.00
2022-10-19T22:51:56.187Z,100.00
2022-10-19T22:54:22.568Z,100.00
2022-10-19T22:56:49.299Z,100.00
2022-10-19T22:59:15.739Z,100.00
2022-10-19T23:01:42.207Z,100.00
2022-10-19T23:04:08.718Z,100.00
2022-10-19T23:06:35.128Z,100.00
2022-10-19T23:09:01.623Z,100.00
2022-10-19T23:11:28.095Z,100.00
2022-10-19T23:13:54.474Z,100.00
2022-10-19T23:16:20.929Z,100.00
2022-10-19T23:18:47.450Z,100.00
2022-10-19T23:21:14.384Z,100.00
2022-10-19T23:23:41.149Z,100.00
2022-10-19T23:26:09.297Z,100.00
2022-10-19T23:28:36.470Z,100.00
2022-10-19T23:31:04.813Z,100.00
2022-10-19T23:33:31.357Z,100.00
2022-10-19T23:36:05.327Z,100.00
2022-10-19T23:38:31.773Z,100.00
2022-10-19T23:40:58.158Z,100.00
2022-10-19T23:43:24.643Z,100.00
2022-10-19T23:45:51.245Z,100.00
2022-10-19T23:48:17.672Z,100.00
2022-10-19T23:50:44.055Z,100.00
2022-10-19T23:53:10.512Z,100.00
2022-10-19T23:55:36.929Z,100.00
2022-10-19T23:58:03.699Z,100.00
